Terminal Aerodrome Forecast
Issued by NWS

Home | Current Version | Previous Version | Text Only | Print | Product List | Glossary Off
Versions: 1 2 3 4 5 6 7 8 9 10 11 12 13 14 15 16 17 18 19 20 21 22 23 24 25 26

000
FTUS43 KGRB 162323
TAFCWA
TAF
KCWA 162323Z 1700/1724 07006KT P6SM OVC015
     FM171000 VRB03KT P6SM OVC008
      TEMPO 1710/1714 3SM BR OVC004
     FM171800 VRB03KT P6SM OVC012=

USA.gov is the U.S. government's official web portal to all federal, state and local government web resources and services.